Manzini, Swaziland

12:38 PM SAST on April 01, 2015 (GMT +0200)
Matsapha International | | Change Station
CLOSE
Current Station
Airport
Location: Manzini,
Elevation: 2103 ft
Nearby Weather Stations

Elev 2103 ft 26.53 °S, 31.31 °E | Updated 1 hour ago

Mostly Cloudy
Mostly Cloudy
77 °F
Feels Like 77 °F
N
0
Wind Variable Wind from North

Today
High -- | Low -- °F
--% Chance of Precip.
Yesterday
High -- | Low -- °F
Precip. -- in
6:03 AM 5:53 PM
Waxing Gibbous, 92% visible
Pressure 30.15 in
Visibility 6.2 miles
Clouds Mostly Cloudy 3500 ft
Dew Point 64 °F
Humidity 65%
Rainfall 0.00 in
Snow Depth Not available.
UV 6 out of 12
Pollen Not available.
Air Quality Not available.
Flu Activity Not available.
METAR FDMS 010900Z 00000KT 9999 BKN035 25/18 Q1021 NOSIG

More Conditions Fewer Conditions

Pressure 30.15 in
Visibility 6.2 miles
Clouds Mostly Cloudy 3500 ft
Dew Point 64 °F
Humidity 65%
Rainfall 0.00 in
Snow Depth Not available.
UV 6 out of 12
Pollen Not available.
Air Quality Not available.
Flu Activity Not available.
METAR FDMS 010900Z 00000KT 9999 BKN035 25/18 Q1021 NOSIG

More Conditions Fewer Conditions

10-Day Weather Forecast

Almanac

Astronomy

Apr. 01, 2015 Rise Set
Actual Time
Civil Twilight
Nautical Twilight
Astronomical Twilight
Moon
Length of Visible Light
Length of Day
Tomorrow will be .
, % of the Moon is Illuminated

Today's Extremes

Country Highs Country Lows

Community

WunderPhotos

Upload Photos

1,809,934 photos uploaded!

WunderBlogs® & News

Nearby

Air Quality

  Air Quality AQ Index Pollutant
Not available.

Snow Depth

Station Depth Elevation

Earthquake Activity

City Distance Mag. Time & Date
Minimum magnitude displayed is 2.5.

Coastal Water Temperatures

Place Temperature

Stations

Nearby Weather Stations

Station Location Temp. Windchill Dew Point Humidity Wind Precip. Elev Updated Type